sensor_id;sensor_type;location;lat;lon;timestamp;temperature;humidity
32811;DHT22;65470;47.324;8.548;2022-12-08T00:01:27;5.00;99.90
32811;DHT22;65470;47.324;8.548;2022-12-08T00:03:53;5.00;99.90
32811;DHT22;65470;47.324;8.548;2022-12-08T00:09:21;5.00;99.90
32811;DHT22;65470;47.324;8.548;2022-12-08T00:12:09;5.00;99.90
32811;DHT22;65470;47.324;8.548;2022-12-08T00:14:37;5.00;99.90
32811;DHT22;65470;47.324;8.548;2022-12-08T00:17:04;5.00;99.90
32811;DHT22;65470;47.324;8.548;2022-12-08T00:19:31;5.00;99.90
32811;DHT22;65470;47.324;8.548;2022-12-08T00:21:57;5.00;99.90
32811;DHT22;65470;47.324;8.548;2022-12-08T00:24:24;5.00;99.90
32811;DHT22;65470;47.324;8.548;2022-12-08T00:26:50;5.00;99.90
32811;DHT22;65470;47.324;8.548;2022-12-08T00:29:16;5.00;99.90
32811;DHT22;65470;47.324;8.548;2022-12-08T00:31:42;5.10;99.90
32811;DHT22;65470;47.324;8.548;2022-12-08T00:34:07;5.10;99.90
32811;DHT22;65470;47.324;8.548;2022-12-08T00:36:33;5.00;99.90
32811;DHT22;65470;47.324;8.548;2022-12-08T00:38:59;5.00;99.90
32811;DHT22;65470;47.324;8.548;2022-12-08T00:41:26;5.00;99.90
32811;DHT22;65470;47.324;8.548;2022-12-08T00:44:14;5.00;99.90
32811;DHT22;65470;47.324;8.548;2022-12-08T00:46:40;5.00;99.90
32811;DHT22;65470;47.324;8.548;2022-12-08T00:49:06;5.00;99.90
32811;DHT22;65470;47.324;8.548;2022-12-08T00:51:32;5.00;99.90
32811;DHT22;65470;47.324;8.548;2022-12-08T00:53:58;5.00;99.90
32811;DHT22;65470;47.324;8.548;2022-12-08T00:56:25;5.00;99.90
32811;DHT22;65470;47.324;8.548;2022-12-08T00:58:50;5.00;99.90
32811;DHT22;65470;47.324;8.548;2022-12-08T01:01:16;4.90;99.90
32811;DHT22;65470;47.324;8.548;2022-12-08T01:03:42;4.80;99.90
32811;DHT22;65470;47.324;8.548;2022-12-08T01:06:09;4.80;99.90
32811;DHT22;65470;47.324;8.548;2022-12-08T01:08:35;4.70;99.90
32811;DHT22;65470;47.324;8.548;2022-12-08T01:11:03;4.70;99.90
32811;DHT22;65470;47.324;8.548;2022-12-08T01:13:28;4.70;99.90
32811;DHT22;65470;47.324;8.548;2022-12-08T01:15:54;4.70;99.90
32811;DHT22;65470;47.324;8.548;2022-12-08T01:18:20;4.70;99.90
32811;DHT22;65470;47.324;8.548;2022-12-08T01:20:45;4.70;99.90
32811;DHT22;65470;47.324;8.548;2022-12-08T01:23:11;4.70;99.90
32811;DHT22;65470;47.324;8.548;2022-12-08T01:25:37;4.70;99.90
32811;DHT22;65470;47.324;8.548;2022-12-08T01:28:02;4.70;99.90
32811;DHT22;65470;47.324;8.548;2022-12-08T01:30:28;4.70;99.90
32811;DHT22;65470;47.324;8.548;2022-12-08T01:32:54;4.70;99.90
32811;DHT22;65470;47.324;8.548;2022-12-08T01:35:20;4.70;99.90
32811;DHT22;65470;47.324;8.548;2022-12-08T01:37:45;4.70;99.90
32811;DHT22;65470;47.324;8.548;2022-12-08T01:40:11;4.60;99.90
32811;DHT22;65470;47.324;8.548;2022-12-08T01:42:37;4.60;99.90
32811;DHT22;65470;47.324;8.548;2022-12-08T01:45:14;4.60;99.90
32811;DHT22;65470;47.324;8.548;2022-12-08T01:47:45;4.50;99.90
32811;DHT22;65470;47.324;8.548;2022-12-08T01:50:12;4.50;99.90
32811;DHT22;65470;47.324;8.548;2022-12-08T01:52:51;4.50;99.90
32811;DHT22;65470;47.324;8.548;2022-12-08T01:55:23;4.40;99.90
32811;DHT22;65470;47.324;8.548;2022-12-08T01:58:02;4.50;99.90
32811;DHT22;65470;47.324;8.548;2022-12-08T02:00:30;4.60;99.90
32811;DHT22;65470;47.324;8.548;2022-12-08T02:02:58;4.60;99.90
32811;DHT22;65470;47.324;8.548;2022-12-08T02:05:28;4.60;99.90
32811;DHT22;65470;47.324;8.548;2022-12-08T02:07:55;4.70;99.90
32811;DHT22;65470;47.324;8.548;2022-12-08T02:10:23;4.60;99.90
32811;DHT22;65470;47.324;8.548;2022-12-08T02:12:51;4.60;99.90
32811;DHT22;65470;47.324;8.548;2022-12-08T02:15:21;4.60;99.90
32811;DHT22;65470;47.324;8.548;2022-12-08T02:18:37;4.70;99.90
32811;DHT22;65470;47.324;8.548;2022-12-08T02:21:35;4.60;99.90
32811;DHT22;65470;47.324;8.548;2022-12-08T02:29:32;4.70;99.90
32811;DHT22;65470;47.324;8.548;2022-12-08T02:40:37;4.60;99.90
32811;DHT22;65470;47.324;8.548;2022-12-08T02:43:15;4.60;99.90
32811;DHT22;65470;47.324;8.548;2022-12-08T02:45:51;4.60;99.90
32811;DHT22;65470;47.324;8.548;2022-12-08T02:48:19;4.60;99.90
32811;DHT22;65470;47.324;8.548;2022-12-08T02:50:45;4.60;99.90
32811;DHT22;65470;47.324;8.548;2022-12-08T02:53:11;4.60;99.90
32811;DHT22;65470;47.324;8.548;2022-12-08T02:55:50;4.60;99.90
32811;DHT22;65470;47.324;8.548;2022-12-08T03:07:27;4.50;99.90
32811;DHT22;65470;47.324;8.548;2022-12-08T03:10:18;4.50;99.90
32811;DHT22;65470;47.324;8.548;2022-12-08T03:12:49;4.50;99.90
32811;DHT22;65470;47.324;8.548;2022-12-08T03:15:18;4.50;99.90
32811;DHT22;65470;47.324;8.548;2022-12-08T03:17:48;4.60;99.90
32811;DHT22;65470;47.324;8.548;2022-12-08T03:20:19;4.50;99.90
32811;DHT22;65470;47.324;8.548;2022-12-08T03:22:48;4.60;99.90
32811;DHT22;65470;47.324;8.548;2022-12-08T03:25:20;4.60;99.90
32811;DHT22;65470;47.324;8.548;2022-12-08T03:27:46;4.70;99.90
32811;DHT22;65470;47.324;8.548;2022-12-08T03:30:11;4.60;99.90
32811;DHT22;65470;47.324;8.548;2022-12-08T03:32:51;4.70;99.90
32811;DHT22;65470;47.324;8.548;2022-12-08T03:35:24;4.70;99.90
32811;DHT22;65470;47.324;8.548;2022-12-08T03:37:50;4.70;99.90
32811;DHT22;65470;47.324;8.548;2022-12-08T03:40:19;4.70;99.90
32811;DHT22;65470;47.324;8.548;2022-12-08T03:42:45;4.70;99.90
32811;DHT22;65470;47.324;8.548;2022-12-08T03:45:11;4.70;99.90
32811;DHT22;65470;47.324;8.548;2022-12-08T03:47:36;4.70;99.90
32811;DHT22;65470;47.324;8.548;2022-12-08T03:50:03;4.70;99.90
32811;DHT22;65470;47.324;8.548;2022-12-08T03:52:29;4.70;99.90
32811;DHT22;65470;47.324;8.548;2022-12-08T03:54:54;4.80;99.90
32811;DHT22;65470;47.324;8.548;2022-12-08T03:57:20;4.80;99.90
32811;DHT22;65470;47.324;8.548;2022-12-08T03:59:46;4.80;99.90
32811;DHT22;65470;47.324;8.548;2022-12-08T04:02:11;4.80;99.90
32811;DHT22;65470;47.324;8.548;2022-12-08T04:04:37;4.80;99.90
32811;DHT22;65470;47.324;8.548;2022-12-08T04:07:03;4.80;99.90
32811;DHT22;65470;47.324;8.548;2022-12-08T04:09:28;4.70;99.90
32811;DHT22;65470;47.324;8.548;2022-12-08T04:11:54;4.60;99.90
32811;DHT22;65470;47.324;8.548;2022-12-08T04:14:19;4.70;99.90
32811;DHT22;65470;47.324;8.548;2022-12-08T04:16:45;4.70;99.90
32811;DHT22;65470;47.324;8.548;2022-12-08T04:19:11;4.60;99.90
32811;DHT22;65470;47.324;8.548;2022-12-08T04:21:36;4.60;99.90
32811;DHT22;65470;47.324;8.548;2022-12-08T04:24:02;4.60;99.90
32811;DHT22;65470;47.324;8.548;2022-12-08T04:26:28;4.60;99.90
32811;DHT22;65470;47.324;8.548;2022-12-08T04:28:53;4.60;99.90
32811;DHT22;65470;47.324;8.548;2022-12-08T04:31:19;4.60;99.90
32811;DHT22;65470;47.324;8.548;2022-12-08T04:33:45;4.60;99.90
32811;DHT22;65470;47.324;8.548;2022-12-08T04:36:10;4.60;99.90
32811;DHT22;65470;47.324;8.548;2022-12-08T04:38:36;4.60;99.90
32811;DHT22;65470;47.324;8.548;2022-12-08T04:41:02;4.60;99.90
32811;DHT22;65470;47.324;8.548;2022-12-08T04:43:28;4.60;99.90
32811;DHT22;65470;47.324;8.548;2022-12-08T04:45:54;4.50;99.90
32811;DHT22;65470;47.324;8.548;2022-12-08T04:48:19;4.60;99.90
32811;DHT22;65470;47.324;8.548;2022-12-08T04:50:45;4.50;99.90
32811;DHT22;65470;47.324;8.548;2022-12-08T04:53:11;4.50;99.90
32811;DHT22;65470;47.324;8.548;2022-12-08T04:55:39;4.50;99.90
32811;DHT22;65470;47.324;8.548;2022-12-08T04:58:06;4.50;99.90
32811;DHT22;65470;47.324;8.548;2022-12-08T05:00:32;4.50;99.90
32811;DHT22;65470;47.324;8.548;2022-12-08T05:02:57;4.50;99.90
32811;DHT22;65470;47.324;8.548;2022-12-08T05:05:23;4.50;99.90
32811;DHT22;65470;47.324;8.548;2022-12-08T05:07:49;4.40;99.90
32811;DHT22;65470;47.324;8.548;2022-12-08T05:10:15;4.50;99.90
32811;DHT22;65470;47.324;8.548;2022-12-08T05:12:40;4.50;99.90
32811;DHT22;65470;47.324;8.548;2022-12-08T05:15:06;4.50;99.90
32811;DHT22;65470;47.324;8.548;2022-12-08T05:17:32;4.50;99.90
32811;DHT22;65470;47.324;8.548;2022-12-08T05:19:58;4.50;99.90
32811;DHT22;65470;47.324;8.548;2022-12-08T05:22:23;4.50;99.90
32811;DHT22;65470;47.324;8.548;2022-12-08T05:24:49;4.50;99.90
32811;DHT22;65470;47.324;8.548;2022-12-08T05:27:15;4.50;99.90
32811;DHT22;65470;47.324;8.548;2022-12-08T05:29:41;4.50;99.90
32811;DHT22;65470;47.324;8.548;2022-12-08T05:32:06;4.40;99.90
32811;DHT22;65470;47.324;8.548;2022-12-08T05:34:32;4.40;99.90
32811;DHT22;65470;47.324;8.548;2022-12-08T05:36:58;4.40;99.90
32811;DHT22;65470;47.324;8.548;2022-12-08T05:39:23;4.40;99.90
32811;DHT22;65470;47.324;8.548;2022-12-08T05:41:49;4.40;99.90
32811;DHT22;65470;47.324;8.548;2022-12-08T05:44:15;4.40;99.90
32811;DHT22;65470;47.324;8.548;2022-12-08T05:46:40;4.40;99.90
32811;DHT22;65470;47.324;8.548;2022-12-08T05:49:06;4.30;99.90
32811;DHT22;65470;47.324;8.548;2022-12-08T05:51:32;4.30;99.90
32811;DHT22;65470;47.324;8.548;2022-12-08T05:53:58;4.30;99.90
32811;DHT22;65470;47.324;8.548;2022-12-08T05:56:23;4.30;99.90
32811;DHT22;65470;47.324;8.548;2022-12-08T05:58:49;4.30;99.90
32811;DHT22;65470;47.324;8.548;2022-12-08T06:03:48;4.30;99.90
32811;DHT22;65470;47.324;8.548;2022-12-08T06:06:13;4.30;99.90
32811;DHT22;65470;47.324;8.548;2022-12-08T06:08:39;4.30;99.90
32811;DHT22;65470;47.324;8.548;2022-12-08T06:11:05;4.30;99.90
32811;DHT22;65470;47.324;8.548;2022-12-08T06:13:30;4.30;99.90
32811;DHT22;65470;47.324;8.548;2022-12-08T06:16:03;4.30;99.90
32811;DHT22;65470;47.324;8.548;2022-12-08T06:18:29;4.30;99.90
32811;DHT22;65470;47.324;8.548;2022-12-08T06:21:04;4.30;99.90
32811;DHT22;65470;47.324;8.548;2022-12-08T06:23:31;4.30;99.90
32811;DHT22;65470;47.324;8.548;2022-12-08T06:26:01;4.20;99.90
32811;DHT22;65470;47.324;8.548;2022-12-08T06:28:28;4.30;99.90
32811;DHT22;65470;47.324;8.548;2022-12-08T06:30:54;4.30;99.90
32811;DHT22;65470;47.324;8.548;2022-12-08T06:33:20;4.20;99.90
32811;DHT22;65470;47.324;8.548;2022-12-08T06:35:45;4.20;99.90
32811;DHT22;65470;47.324;8.548;2022-12-08T06:38:11;4.20;99.90
32811;DHT22;65470;47.324;8.548;2022-12-08T06:40:36;4.20;99.90
32811;DHT22;65470;47.324;8.548;2022-12-08T06:43:02;4.20;99.90
32811;DHT22;65470;47.324;8.548;2022-12-08T06:45:28;4.20;99.90
32811;DHT22;65470;47.324;8.548;2022-12-08T06:47:53;4.20;99.90
32811;DHT22;65470;47.324;8.548;2022-12-08T06:50:19;4.20;99.90
32811;DHT22;65470;47.324;8.548;2022-12-08T06:52:45;4.20;99.90
32811;DHT22;65470;47.324;8.548;2022-12-08T06:55:11;4.30;99.90
32811;DHT22;65470;47.324;8.548;2022-12-08T06:57:37;4.30;99.90
32811;DHT22;65470;47.324;8.548;2022-12-08T07:00:04;4.30;99.90
32811;DHT22;65470;47.324;8.548;2022-12-08T07:02:30;4.30;99.90
32811;DHT22;65470;47.324;8.548;2022-12-08T07:04:55;4.30;99.90
32811;DHT22;65470;47.324;8.548;2022-12-08T07:07:22;4.30;99.90
32811;DHT22;65470;47.324;8.548;2022-12-08T07:09:48;4.20;99.90
32811;DHT22;65470;47.324;8.548;2022-12-08T07:12:13;4.20;99.90
32811;DHT22;65470;47.324;8.548;2022-12-08T07:14:39;4.30;99.90
32811;DHT22;65470;47.324;8.548;2022-12-08T07:17:04;4.30;99.90
32811;DHT22;65470;47.324;8.548;2022-12-08T07:19:30;4.40;99.90
32811;DHT22;65470;47.324;8.548;2022-12-08T07:21:56;4.50;99.90
32811;DHT22;65470;47.324;8.548;2022-12-08T07:24:21;4.60;99.90
32811;DHT22;65470;47.324;8.548;2022-12-08T07:26:47;4.60;99.90
32811;DHT22;65470;47.324;8.548;2022-12-08T07:29:13;4.60;99.90
32811;DHT22;65470;47.324;8.548;2022-12-08T07:31:38;4.60;99.90
32811;DHT22;65470;47.324;8.548;2022-12-08T07:34:04;4.60;99.90
32811;DHT22;65470;47.324;8.548;2022-12-08T07:36:30;4.60;99.90
32811;DHT22;65470;47.324;8.548;2022-12-08T07:38:57;4.60;99.90
32811;DHT22;65470;47.324;8.548;2022-12-08T07:41:24;4.60;99.90
32811;DHT22;65470;47.324;8.548;2022-12-08T07:43:51;4.60;99.90
32811;DHT22;65470;47.324;8.548;2022-12-08T07:46:19;4.70;99.90
32811;DHT22;65470;47.324;8.548;2022-12-08T07:48:46;4.70;99.90
32811;DHT22;65470;47.324;8.548;2022-12-08T07:51:13;4.70;99.90
32811;DHT22;65470;47.324;8.548;2022-12-08T07:53:44;4.70;99.90
32811;DHT22;65470;47.324;8.548;2022-12-08T07:56:11;4.70;99.90
32811;DHT22;65470;47.324;8.548;2022-12-08T07:58:37;4.80;99.90
32811;DHT22;65470;47.324;8.548;2022-12-08T08:01:03;4.90;99.90
32811;DHT22;65470;47.324;8.548;2022-12-08T08:03:29;5.00;99.90
32811;DHT22;65470;47.324;8.548;2022-12-08T08:05:54;5.10;99.90
32811;DHT22;65470;47.324;8.548;2022-12-08T08:08:26;5.10;99.90
32811;DHT22;65470;47.324;8.548;2022-12-08T08:10:51;5.00;99.90
32811;DHT22;65470;47.324;8.548;2022-12-08T08:13:17;5.10;99.90
32811;DHT22;65470;47.324;8.548;2022-12-08T08:15:43;5.20;99.90
32811;DHT22;65470;47.324;8.548;2022-12-08T08:18:08;5.20;99.90
32811;DHT22;65470;47.324;8.548;2022-12-08T08:20:34;5.30;99.90
32811;DHT22;65470;47.324;8.548;2022-12-08T08:22:59;5.30;99.90
32811;DHT22;65470;47.324;8.548;2022-12-08T08:25:25;5.30;99.90
32811;DHT22;65470;47.324;8.548;2022-12-08T08:27:51;5.40;99.90
32811;DHT22;65470;47.324;8.548;2022-12-08T08:30:17;5.40;99.90
32811;DHT22;65470;47.324;8.548;2022-12-08T08:32:43;5.50;99.90
32811;DHT22;65470;47.324;8.548;2022-12-08T08:35:09;5.50;99.90
32811;DHT22;65470;47.324;8.548;2022-12-08T08:37:34;5.60;99.90
32811;DHT22;65470;47.324;8.548;2022-12-08T08:40:00;5.70;99.90
32811;DHT22;65470;47.324;8.548;2022-12-08T08:42:25;5.80;99.90
32811;DHT22;65470;47.324;8.548;2022-12-08T08:44:51;5.90;99.90
32811;DHT22;65470;47.324;8.548;2022-12-08T08:47:18;5.90;99.90
32811;DHT22;65470;47.324;8.548;2022-12-08T08:49:43;6.00;99.90
32811;DHT22;65470;47.324;8.548;2022-12-08T08:52:09;6.10;99.90
32811;DHT22;65470;47.324;8.548;2022-12-08T08:54:35;6.10;99.90
32811;DHT22;65470;47.324;8.548;2022-12-08T08:57:01;6.10;99.90
32811;DHT22;65470;47.324;8.548;2022-12-08T08:59:27;6.20;99.90
32811;DHT22;65470;47.324;8.548;2022-12-08T09:01:54;6.30;99.90
32811;DHT22;65470;47.324;8.548;2022-12-08T09:04:23;6.30;99.90
32811;DHT22;65470;47.324;8.548;2022-12-08T09:06:49;6.30;99.90
32811;DHT22;65470;47.324;8.548;2022-12-08T09:09:16;6.30;99.90
32811;DHT22;65470;47.324;8.548;2022-12-08T09:11:42;6.40;99.90
32811;DHT22;65470;47.324;8.548;2022-12-08T09:14:10;6.40;99.90
32811;DHT22;65470;47.324;8.548;2022-12-08T09:16:37;6.50;99.90
32811;DHT22;65470;47.324;8.548;2022-12-08T09:19:02;6.70;99.90
32811;DHT22;65470;47.324;8.548;2022-12-08T09:21:28;6.80;99.90
32811;DHT22;65470;47.324;8.548;2022-12-08T09:23:55;6.80;99.90
32811;DHT22;65470;47.324;8.548;2022-12-08T09:26:21;6.90;99.90
32811;DHT22;65470;47.324;8.548;2022-12-08T09:28:51;6.90;99.90
32811;DHT22;65470;47.324;8.548;2022-12-08T09:31:19;6.90;99.90
32811;DHT22;65470;47.324;8.548;2022-12-08T09:33:45;7.00;99.90
32811;DHT22;65470;47.324;8.548;2022-12-08T09:36:11;7.10;99.90
32811;DHT22;65470;47.324;8.548;2022-12-08T09:38:37;7.20;99.90
32811;DHT22;65470;47.324;8.548;2022-12-08T09:41:13;7.30;99.90
32811;DHT22;65470;47.324;8.548;2022-12-08T09:46:17;7.80;99.90
32811;DHT22;65470;47.324;8.548;2022-12-08T09:48:56;7.90;99.90
32811;DHT22;65470;47.324;8.548;2022-12-08T09:51:24;7.80;99.90
32811;DHT22;65470;47.324;8.548;2022-12-08T09:53:55;7.70;99.90
32811;DHT22;65470;47.324;8.548;2022-12-08T09:56:25;7.60;99.90
32811;DHT22;65470;47.324;8.548;2022-12-08T10:01:33;7.60;99.90
32811;DHT22;65470;47.324;8.548;2022-12-08T10:04:02;7.60;99.90
32811;DHT22;65470;47.324;8.548;2022-12-08T10:09:27;7.70;99.90
32811;DHT22;65470;47.324;8.548;2022-12-08T10:17:44;7.70;99.90
32811;DHT22;65470;47.324;8.548;2022-12-08T10:20:20;7.70;99.90
32811;DHT22;65470;47.324;8.548;2022-12-08T10:22:52;7.80;99.90
32811;DHT22;65470;47.324;8.548;2022-12-08T10:25:27;8.10;99.90
32811;DHT22;65470;47.324;8.548;2022-12-08T10:27:55;8.40;99.90
32811;DHT22;65470;47.324;8.548;2022-12-08T10:30:22;8.90;99.90
32811;DHT22;65470;47.324;8.548;2022-12-08T10:32:50;9.40;99.90
32811;DHT22;65470;47.324;8.548;2022-12-08T10:35:18;10.40;99.90
32811;DHT22;65470;47.324;8.548;2022-12-08T10:37:55;11.50;97.10
32811;DHT22;65470;47.324;8.548;2022-12-08T10:40:22;12.80;92.00
32811;DHT22;65470;47.324;8.548;2022-12-08T10:42:54;13.00;88.50
32811;DHT22;65470;47.324;8.548;2022-12-08T10:45:36;12.60;87.40
32811;DHT22;65470;47.324;8.548;2022-12-08T10:48:04;12.00;88.70
32811;DHT22;65470;47.324;8.548;2022-12-08T10:50:35;11.60;90.10
32811;DHT22;65470;47.324;8.548;2022-12-08T10:53:15;11.40;90.50
32811;DHT22;65470;47.324;8.548;2022-12-08T10:55:51;10.90;90.90
32811;DHT22;65470;47.324;8.548;2022-12-08T10:58:40;10.50;92.10
32811;DHT22;65470;47.324;8.548;2022-12-08T11:03:58;9.70;94.60
32811;DHT22;65470;47.324;8.548;2022-12-08T11:08:59;9.10;97.00
32811;DHT22;65470;47.324;8.548;2022-12-08T11:11:48;8.90;98.60
32811;DHT22;65470;47.324;8.548;2022-12-08T11:14:28;8.70;98.70
32811;DHT22;65470;47.324;8.548;2022-12-08T11:17:04;8.50;98.90
32811;DHT22;65470;47.324;8.548;2022-12-08T11:19:30;8.30;99.90
32811;DHT22;65470;47.324;8.548;2022-12-08T11:22:00;8.30;99.90
32811;DHT22;65470;47.324;8.548;2022-12-08T11:24:27;8.30;99.90
32811;DHT22;65470;47.324;8.548;2022-12-08T11:26:59;8.20;99.90
32811;DHT22;65470;47.324;8.548;2022-12-08T11:29:27;8.20;99.90
32811;DHT22;65470;47.324;8.548;2022-12-08T11:31:59;8.20;99.90
32811;DHT22;65470;47.324;8.548;2022-12-08T11:34:46;8.00;99.90
32811;DHT22;65470;47.324;8.548;2022-12-08T11:37:27;8.10;99.90
32811;DHT22;65470;47.324;8.548;2022-12-08T11:39:56;8.10;99.90
32811;DHT22;65470;47.324;8.548;2022-12-08T11:42:27;8.20;99.90
32811;DHT22;65470;47.324;8.548;2022-12-08T11:44:57;8.20;99.90
32811;DHT22;65470;47.324;8.548;2022-12-08T11:47:42;8.30;99.90
32811;DHT22;65470;47.324;8.548;2022-12-08T11:53:00;8.30;99.80
32811;DHT22;65470;47.324;8.548;2022-12-08T11:55:35;8.40;99.20
32811;DHT22;65470;47.324;8.548;2022-12-08T11:58:37;8.50;96.50
32811;DHT22;65470;47.324;8.548;2022-12-08T12:01:04;8.50;97.40
32811;DHT22;65470;47.324;8.548;2022-12-08T12:03:38;8.70;96.20
32811;DHT22;65470;47.324;8.548;2022-12-08T12:09:07;9.10;97.20
32811;DHT22;65470;47.324;8.548;2022-12-08T12:11:47;10.10;93.80
32811;DHT22;65470;47.324;8.548;2022-12-08T12:20:16;12.90;78.40
32811;DHT22;65470;47.324;8.548;2022-12-08T12:22:47;12.40;80.10
32811;DHT22;65470;47.324;8.548;2022-12-08T12:25:20;11.60;82.30
32811;DHT22;65470;47.324;8.548;2022-12-08T12:27:47;11.20;83.70
32811;DHT22;65470;47.324;8.548;2022-12-08T12:30:23;11.10;85.10
32811;DHT22;65470;47.324;8.548;2022-12-08T12:32:58;10.80;84.50
32811;DHT22;65470;47.324;8.548;2022-12-08T12:35:36;10.40;86.70
32811;DHT22;65470;47.324;8.548;2022-12-08T12:38:20;10.30;87.20
32811;DHT22;65470;47.324;8.548;2022-12-08T12:41:07;10.10;86.80
32811;DHT22;65470;47.324;8.548;2022-12-08T12:43:35;9.70;87.40
32811;DHT22;65470;47.324;8.548;2022-12-08T12:48:50;9.10;90.50
32811;DHT22;65470;47.324;8.548;2022-12-08T12:54:24;8.90;90.80
32811;DHT22;65470;47.324;8.548;2022-12-08T13:00:05;8.70;91.20
32811;DHT22;65470;47.324;8.548;2022-12-08T13:05:29;8.60;91.50
32811;DHT22;65470;47.324;8.548;2022-12-08T13:08:13;8.30;91.20
32811;DHT22;65470;47.324;8.548;2022-12-08T13:14:02;8.60;91.10
32811;DHT22;65470;47.324;8.548;2022-12-08T13:16:33;9.00;91.60
32811;DHT22;65470;47.324;8.548;2022-12-08T13:19:03;9.20;90.40
32811;DHT22;65470;47.324;8.548;2022-12-08T13:21:37;9.60;90.20
32811;DHT22;65470;47.324;8.548;2022-12-08T13:26:47;10.80;86.50
32811;DHT22;65470;47.324;8.548;2022-12-08T13:29:22;10.90;83.70
32811;DHT22;65470;47.324;8.548;2022-12-08T13:31:59;10.70;82.70
32811;DHT22;65470;47.324;8.548;2022-12-08T13:42:20;9.50;87.80
32811;DHT22;65470;47.324;8.548;2022-12-08T13:47:33;9.20;89.60
32811;DHT22;65470;47.324;8.548;2022-12-08T13:50:20;9.20;90.20
32811;DHT22;65470;47.324;8.548;2022-12-08T13:52:54;9.20;90.40
32811;DHT22;65470;47.324;8.548;2022-12-08T13:55:40;9.00;90.60
32811;DHT22;65470;47.324;8.548;2022-12-08T13:58:16;9.00;90.60
32811;DHT22;65470;47.324;8.548;2022-12-08T14:00:42;8.90;91.10
32811;DHT22;65470;47.324;8.548;2022-12-08T14:03:10;8.90;91.40
32811;DHT22;65470;47.324;8.548;2022-12-08T14:05:39;8.90;91.80
32811;DHT22;65470;47.324;8.548;2022-12-08T14:08:15;9.00;91.90
32811;DHT22;65470;47.324;8.548;2022-12-08T14:10:43;8.80;90.80
32811;DHT22;65470;47.324;8.548;2022-12-08T14:13:11;8.60;93.00
32811;DHT22;65470;47.324;8.548;2022-12-08T14:15:38;8.60;93.40
32811;DHT22;65470;47.324;8.548;2022-12-08T14:18:05;8.50;93.10
32811;DHT22;65470;47.324;8.548;2022-12-08T14:20:33;8.40;93.30
32811;DHT22;65470;47.324;8.548;2022-12-08T14:23:05;8.30;94.10
32811;DHT22;65470;47.324;8.548;2022-12-08T14:25:34;8.00;95.00
32811;DHT22;65470;47.324;8.548;2022-12-08T14:28:02;7.90;94.70
32811;DHT22;65470;47.324;8.548;2022-12-08T14:30:32;7.60;94.80
32811;DHT22;65470;47.324;8.548;2022-12-08T14:33:01;7.50;94.90
32811;DHT22;65470;47.324;8.548;2022-12-08T14:35:35;7.40;95.40
32811;DHT22;65470;47.324;8.548;2022-12-08T14:38:12;7.30;94.70
32811;DHT22;65470;47.324;8.548;2022-12-08T14:40:42;7.10;95.70
32811;DHT22;65470;47.324;8.548;2022-12-08T14:48:24;6.80;97.30
32811;DHT22;65470;47.324;8.548;2022-12-08T14:58:33;6.20;99.90
32811;DHT22;65470;47.324;8.548;2022-12-08T15:00:59;6.00;99.90
32811;DHT22;65470;47.324;8.548;2022-12-08T15:03:27;5.80;99.90
32811;DHT22;65470;47.324;8.548;2022-12-08T15:05:57;5.70;99.90
32811;DHT22;65470;47.324;8.548;2022-12-08T15:08:24;5.70;99.90
32811;DHT22;65470;47.324;8.548;2022-12-08T15:13:48;5.50;99.90
32811;DHT22;65470;47.324;8.548;2022-12-08T15:19:13;5.30;99.90
32811;DHT22;65470;47.324;8.548;2022-12-08T15:21:42;5.10;99.90
32811;DHT22;65470;47.324;8.548;2022-12-08T15:24:11;5.10;99.90
32811;DHT22;65470;47.324;8.548;2022-12-08T15:26:46;5.00;99.90
32811;DHT22;65470;47.324;8.548;2022-12-08T15:29:26;5.00;99.90
32811;DHT22;65470;47.324;8.548;2022-12-08T15:31:55;5.00;99.90
32811;DHT22;65470;47.324;8.548;2022-12-08T15:34:21;4.90;99.90
32811;DHT22;65470;47.324;8.548;2022-12-08T15:36:48;4.80;99.90
32811;DHT22;65470;47.324;8.548;2022-12-08T15:41:53;4.60;99.90
32811;DHT22;65470;47.324;8.548;2022-12-08T15:44:19;4.50;99.90
32811;DHT22;65470;47.324;8.548;2022-12-08T15:46:45;4.50;99.90
32811;DHT22;65470;47.324;8.548;2022-12-08T15:49:16;4.50;99.90
32811;DHT22;65470;47.324;8.548;2022-12-08T15:51:43;4.50;99.90
32811;DHT22;65470;47.324;8.548;2022-12-08T15:54:08;4.50;99.90
32811;DHT22;65470;47.324;8.548;2022-12-08T15:56:34;4.40;99.90
32811;DHT22;65470;47.324;8.548;2022-12-08T15:59:00;4.40;99.90
32811;DHT22;65470;47.324;8.548;2022-12-08T16:01:26;4.30;99.90
32811;DHT22;65470;47.324;8.548;2022-12-08T16:03:51;4.20;99.90
32811;DHT22;65470;47.324;8.548;2022-12-08T16:06:19;4.20;99.90
32811;DHT22;65470;47.324;8.548;2022-12-08T16:08:45;4.10;99.90
32811;DHT22;65470;47.324;8.548;2022-12-08T16:11:11;4.10;99.90
32811;DHT22;65470;47.324;8.548;2022-12-08T16:13:57;4.00;99.90
32811;DHT22;65470;47.324;8.548;2022-12-08T16:16:28;3.90;99.90
32811;DHT22;65470;47.324;8.548;2022-12-08T16:18:54;3.90;99.90
32811;DHT22;65470;47.324;8.548;2022-12-08T16:21:20;3.90;99.90
32811;DHT22;65470;47.324;8.548;2022-12-08T16:23:46;3.90;99.90
32811;DHT22;65470;47.324;8.548;2022-12-08T16:26:16;3.90;99.90
32811;DHT22;65470;47.324;8.548;2022-12-08T16:28:42;3.80;99.90
32811;DHT22;65470;47.324;8.548;2022-12-08T16:31:11;3.80;99.90
32811;DHT22;65470;47.324;8.548;2022-12-08T16:33:36;3.80;99.90
32811;DHT22;65470;47.324;8.548;2022-12-08T16:36:02;3.70;99.90
32811;DHT22;65470;47.324;8.548;2022-12-08T16:38:28;3.60;99.90
32811;DHT22;65470;47.324;8.548;2022-12-08T16:40:53;3.60;99.90
32811;DHT22;65470;47.324;8.548;2022-12-08T16:43:38;3.60;99.90
32811;DHT22;65470;47.324;8.548;2022-12-08T16:46:03;3.60;99.90
32811;DHT22;65470;47.324;8.548;2022-12-08T16:48:29;3.50;99.90
32811;DHT22;65470;47.324;8.548;2022-12-08T16:50:55;3.50;99.90
32811;DHT22;65470;47.324;8.548;2022-12-08T16:53:21;3.50;99.90
32811;DHT22;65470;47.324;8.548;2022-12-08T16:55:48;3.50;99.90
32811;DHT22;65470;47.324;8.548;2022-12-08T16:58:14;3.50;99.90
32811;DHT22;65470;47.324;8.548;2022-12-08T17:00:40;3.50;99.90
32811;DHT22;65470;47.324;8.548;2022-12-08T17:03:07;3.50;99.90
32811;DHT22;65470;47.324;8.548;2022-12-08T17:05:33;3.50;99.90
32811;DHT22;65470;47.324;8.548;2022-12-08T17:07:59;3.50;99.90
32811;DHT22;65470;47.324;8.548;2022-12-08T17:10:28;3.50;99.90
32811;DHT22;65470;47.324;8.548;2022-12-08T17:12:55;3.50;99.90
32811;DHT22;65470;47.324;8.548;2022-12-08T17:15:23;3.50;99.90
32811;DHT22;65470;47.324;8.548;2022-12-08T17:17:50;3.50;99.90
32811;DHT22;65470;47.324;8.548;2022-12-08T17:20:22;3.40;99.90
32811;DHT22;65470;47.324;8.548;2022-12-08T17:22:48;3.40;99.90
32811;DHT22;65470;47.324;8.548;2022-12-08T17:25:14;3.50;99.90
32811;DHT22;65470;47.324;8.548;2022-12-08T17:27:40;3.50;99.90
32811;DHT22;65470;47.324;8.548;2022-12-08T17:30:08;3.60;99.90
32811;DHT22;65470;47.324;8.548;2022-12-08T17:32:37;3.60;99.90
32811;DHT22;65470;47.324;8.548;2022-12-08T17:35:03;3.70;99.90
32811;DHT22;65470;47.324;8.548;2022-12-08T17:37:29;3.70;99.90
32811;DHT22;65470;47.324;8.548;2022-12-08T17:39:54;3.70;99.90
32811;DHT22;65470;47.324;8.548;2022-12-08T17:42:20;3.70;99.90
32811;DHT22;65470;47.324;8.548;2022-12-08T17:44:50;3.70;99.90